Time;durP1;ratioP1;P1;durP2;ratioP2;P2;SDS_P1;SDS_P2;PMS_P1;PMS_P2;Temp;Humidity;BMP_temperature;BMP_pressure;BME280_temperature;BME280_humidity;BME280_pressure;Samples;Min_cycle;Max_cycle;Signal;HPM_P1;HPM_P2
2023/05/19 00:02:04;;;;;;;3.85;2.90;;;15.40;60.60;;;;;;5012294;28;20228;-48
2023/05/19 00:04:35;;;;;;;3.17;2.85;;;15.50;60.50;;;;;;5012199;28;20231;-47
2023/05/19 00:07:07;;;;;;;2.83;2.50;;;15.50;60.50;;;;;;5011775;28;20704;-52
2023/05/19 00:09:37;;;;;;;3.70;2.90;;;15.50;60.50;;;;;;5012210;28;20220;-48
2023/05/19 00:12:09;;;;;;;2.92;2.70;;;15.50;60.40;;;;;;5011740;28;20587;-48
2023/05/19 00:14:42;;;;;;;3.00;2.70;;;15.50;60.40;;;;;;5011978;28;20200;-50
2023/05/19 00:17:13;;;;;;;3.28;2.90;;;15.50;60.40;;;;;;5012470;28;20207;-49
2023/05/19 00:19:44;;;;;;;2.65;2.42;;;15.50;60.40;;;;;;5012091;28;20216;-47
2023/05/19 00:22:15;;;;;;;3.20;2.90;;;15.50;60.40;;;;;;5011599;28;20638;-49
2023/05/19 00:24:46;;;;;;;6.00;2.83;;;15.50;60.40;;;;;;5011394;28;20204;-49
2023/05/19 00:27:17;;;;;;;3.45;2.90;;;15.50;60.40;;;;;;5012033;28;20220;-47
2023/05/19 00:29:49;;;;;;;2.88;2.58;;;15.50;60.40;;;;;;5012090;28;20216;-47
2023/05/19 00:32:20;;;;;;;3.00;2.65;;;15.50;60.40;;;;;;5011469;28;20623;-49
2023/05/19 00:34:50;;;;;;;3.28;2.55;;;15.50;60.30;;;;;;5011623;28;20204;-49
2023/05/19 00:37:22;;;;;;;3.00;2.67;;;15.50;60.30;;;;;;5012044;28;20208;-47
2023/05/19 00:39:53;;;;;;;2.85;2.65;;;15.50;60.30;;;;;;5011862;28;20220;-48
2023/05/19 00:42:24;;;;;;;4.10;3.38;;;15.50;60.30;;;;;;5011532;28;20251;-48
2023/05/19 00:44:56;;;;;;;3.58;3.03;;;15.50;60.30;;;;;;5011461;28;20204;-48
2023/05/19 00:47:27;;;;;;;3.45;2.80;;;15.60;60.20;;;;;;5010871;28;20185;-52
2023/05/19 00:49:58;;;;;;;3.67;2.88;;;15.60;60.30;;;;;;5011257;28;20290;-47
2023/05/19 00:52:28;;;;;;;2.88;2.63;;;15.60;60.20;;;;;;5011343;28;20200;-48
2023/05/19 00:54:59;;;;;;;3.20;2.90;;;15.60;60.20;;;;;;5011703;28;20193;-50
2023/05/19 00:57:30;;;;;;;3.40;3.10;;;15.60;60.20;;;;;;5011420;28;20204;-47
2023/05/19 01:00:05;;;;;;;3.22;2.90;;;15.60;60.10;;;;;;5011274;28;20708;-49
2023/05/19 01:02:37;;;;;;;3.00;2.80;;;15.60;60.20;;;;;;5011084;28;20243;-50
2023/05/19 01:05:08;;;;;;;3.58;3.03;;;15.60;60.20;;;;;;5011519;28;20538;-47
2023/05/19 01:07:39;;;;;;;3.72;2.90;;;15.60;60.20;;;;;;5011630;28;20548;-50
2023/05/19 01:10:10;;;;;;;3.17;2.80;;;15.60;60.20;;;;;;5011508;28;20271;-47
2023/05/19 01:12:41;;;;;;;3.50;3.20;;;15.60;60.20;;;;;;5011632;28;20204;-49
2023/05/19 01:15:15;;;;;;;3.78;3.40;;;15.60;60.20;;;;;;5011556;28;20204;-51
2023/05/19 01:17:53;;;;;;;3.38;3.08;;;15.60;60.20;;;;;;5011632;28;20687;-48
2023/05/19 01:20:29;;;;;;;3.15;2.90;;;15.60;60.20;;;;;;5011313;28;20220;-50
2023/05/19 01:23:29;;;;;;;3.00;2.70;;;15.60;60.90;;;;;;5011394;28;20692;-52
2023/05/19 01:26:35;;;;;;;3.03;2.80;;;15.60;60.10;;;;;;5011548;28;20209;-49
2023/05/19 01:29:25;;;;;;;3.33;2.70;;;15.60;60.10;;;;;;5011097;28;20672;-49
2023/05/19 01:32:00;;;;;;;3.25;2.90;;;15.70;60.20;;;;;;5009222;28;20302;-47
2023/05/19 01:34:33;;;;;;;2.75;2.55;;;15.60;60.10;;;;;;5011130;28;20320;-48
2023/05/19 01:37:05;;;;;;;3.67;2.75;;;15.60;60.10;;;;;;5014054;28;20205;-49
2023/05/19 01:39:36;;;;;;;2.50;2.30;;;15.60;60.10;;;;;;5014754;28;20719;-48
2023/05/19 01:42:08;;;;;;;2.95;2.65;;;15.70;60.20;;;;;;5014694;28;20224;-51
2023/05/19 01:44:39;;;;;;;3.33;3.03;;;15.60;60.20;;;;;;5014754;28;20188;-49
2023/05/19 01:47:12;;;;;;;3.17;2.88;;;15.70;60.30;;;;;;5015351;28;20263;-50
2023/05/19 01:49:43;;;;;;;2.92;2.63;;;15.70;60.30;;;;;;5014984;28;20232;-55
2023/05/19 01:52:14;;;;;;;2.92;2.60;;;15.60;60.10;;;;;;5015068;28;20208;-47
2023/05/19 01:54:44;;;;;;;5.60;3.17;;;15.70;60.30;;;;;;5015035;28;20193;-49
2023/05/19 01:57:24;;;;;;;3.42;3.13;;;15.70;60.30;;;;;;5014800;28;20242;-50
2023/05/19 02:00:04;;;;;;;2.78;2.58;;;15.70;60.20;;;;;;5014630;28;20220;-48
2023/05/19 02:02:45;;;;;;;3.30;3.00;;;15.70;60.10;;;;;;5014412;28;20235;-49
2023/05/19 02:05:28;;;;;;;3.25;2.58;;;15.70;60.20;;;;;;5014324;28;20196;-52
2023/05/19 02:08:11;;;;;;;3.20;2.70;;;15.80;60.20;;;;;;5014427;28;20631;-49
2023/05/19 02:10:44;;;;;;;2.90;2.55;;;15.80;60.20;;;;;;5014396;28;20216;-51
2023/05/19 02:13:19;;;;;;;3.08;2.88;;;15.70;60.10;;;;;;5014570;28;20243;-48
2023/05/19 02:15:52;;;;;;;3.83;3.08;;;15.80;60.20;;;;;;5014275;28;20196;-50
2023/05/19 02:18:28;;;;;;;3.15;2.80;;;15.80;60.20;;;;;;5014257;28;20537;-54
2023/05/19 02:20:59;;;;;;;3.28;3.00;;;15.80;60.20;;;;;;5014338;28;20259;-53
2023/05/19 02:23:30;;;;;;;2.90;2.60;;;15.80;60.20;;;;;;5014280;28;20212;-51
2023/05/19 02:26:00;;;;;;;2.70;2.47;;;15.80;60.20;;;;;;5013373;28;20185;-50
2023/05/19 02:28:31;;;;;;;3.08;2.85;;;15.80;60.20;;;;;;5013819;28;20200;-52
2023/05/19 02:31:02;;;;;;;2.60;2.40;;;15.80;60.20;;;;;;5014194;28;20224;-51
2023/05/19 02:33:35;;;;;;;3.40;2.97;;;15.80;60.20;;;;;;5014380;28;20291;-50
2023/05/19 02:36:05;;;;;;;3.78;2.83;;;15.80;60.20;;;;;;5014332;28;20672;-50
2023/05/19 02:38:36;;;;;;;3.10;2.80;;;15.80;60.10;;;;;;5014106;28;20204;-52
2023/05/19 02:41:07;;;;;;;2.67;2.47;;;15.80;60.10;;;;;;5013256;28;20232;-54
2023/05/19 02:43:37;;;;;;;3.50;3.20;;;15.90;60.20;;;;;;5013403;28;20197;-48
2023/05/19 02:46:08;;;;;;;3.17;2.88;;;15.80;60.10;;;;;;5013054;28;20204;-50
2023/05/19 02:48:40;;;;;;;3.13;2.90;;;15.80;60.10;;;;;;5012921;28;20243;-48
2023/05/19 02:51:11;;;;;;;2.85;2.65;;;15.80;60.10;;;;;;5013200;28;20232;-52
2023/05/19 02:53:42;;;;;;;3.05;2.80;;;15.80;60.20;;;;;;5013236;28;20649;-49
2023/05/19 02:56:12;;;;;;;2.83;2.60;;;15.90;60.10;;;;;;5013596;28;20612;-51
2023/05/19 02:58:44;;;;;;;3.72;2.70;;;15.90;60.10;;;;;;5013627;28;20196;-50
2023/05/19 03:01:14;;;;;;;2.53;2.33;;;15.90;60.10;;;;;;5013498;28;20263;-55
2023/05/19 03:03:47;;;;;;;2.80;2.60;;;15.90;60.10;;;;;;5013866;28;20208;-48
2023/05/19 03:06:17;;;;;;;2.60;2.40;;;15.90;60.10;;;;;;5013572;28;20201;-50
2023/05/19 03:08:48;;;;;;;3.20;3.00;;;15.90;60.10;;;;;;5013471;28;20193;-48
2023/05/19 03:11:19;;;;;;;2.97;2.75;;;15.90;60.10;;;;;;5013191;28;20232;-55
2023/05/19 03:13:49;;;;;;;3.10;2.80;;;15.90;60.10;;;;;;5013270;28;20193;-51
2023/05/19 03:16:20;;;;;;;3.10;2.80;;;15.90;60.10;;;;;;5013240;28;20201;-51
2023/05/19 03:18:54;;;;;;;3.03;2.72;;;15.90;60.00;;;;;;5012507;28;20293;-51
2023/05/19 03:21:25;;;;;;;3.22;2.92;;;15.90;60.00;;;;;;5012854;28;20224;-50
2023/05/19 03:23:55;;;;;;;3.33;3.03;;;16.00;60.10;;;;;;5013326;28;20247;-51
2023/05/19 03:26:26;;;;;;;3.38;3.08;;;15.90;60.00;;;;;;5012791;28;20204;-53
2023/05/19 03:28:57;;;;;;;3.50;3.20;;;15.90;60.00;;;;;;5012963;28;20867;-50
2023/05/19 03:31:29;;;;;;;3.20;2.90;;;15.90;60.00;;;;;;5013259;28;20223;-56
2023/05/19 03:34:02;;;;;;;3.50;2.90;;;15.90;60.00;;;;;;5012829;28;20306;-50
2023/05/19 03:36:38;;;;;;;3.15;2.85;;;16.00;60.10;;;;;;5012712;28;20254;-55
2023/05/19 03:39:09;;;;;;;3.47;3.10;;;16.00;60.10;;;;;;5012305;28;20696;-51
2023/05/19 03:41:40;;;;;;;3.20;2.83;;;16.00;60.10;;;;;;5012530;28;20225;-52
2023/05/19 03:44:11;;;;;;;3.17;2.88;;;16.00;60.10;;;;;;5012913;28;20193;-51
2023/05/19 03:46:41;;;;;;;3.78;2.88;;;16.00;60.10;;;;;;5012739;28;20197;-54
2023/05/19 03:49:14;;;;;;;3.13;2.90;;;16.00;60.10;;;;;;5012668;28;20197;-52
2023/05/19 03:51:44;;;;;;;3.42;3.13;;;16.00;60.10;;;;;;5012334;28;20205;-54
2023/05/19 03:54:15;;;;;;;3.65;3.00;;;16.00;60.10;;;;;;5012628;28;20208;-52
2023/05/19 03:56:46;;;;;;;3.00;2.80;;;16.00;60.00;;;;;;5012545;28;20653;-53
2023/05/19 03:59:17;;;;;;;2.75;2.55;;;16.00;60.00;;;;;;5011610;28;20207;-56
2023/05/19 04:01:47;;;;;;;3.10;2.80;;;16.00;60.00;;;;;;5011716;28;20587;-53
2023/05/19 04:04:20;;;;;;;3.33;3.03;;;16.00;60.00;;;;;;5012066;28;20203;-53
2023/05/19 04:06:51;;;;;;;3.20;2.90;;;16.00;60.00;;;;;;5012634;28;20645;-56
2023/05/19 04:09:22;;;;;;;3.40;3.10;;;16.00;59.90;;;;;;5012854;28;20217;-52
2023/05/19 04:11:53;;;;;;;3.55;3.10;;;16.10;60.00;;;;;;5011974;28;20205;-50
2023/05/19 04:14:24;;;;;;;3.00;2.75;;;16.00;59.90;;;;;;5012189;28;20205;-48
2023/05/19 04:16:54;;;;;;;3.25;2.95;;;16.10;60.00;;;;;;5012274;28;20197;-51
2023/05/19 04:19:27;;;;;;;4.28;3.17;;;16.00;60.00;;;;;;5012114;28;20772;-49
2023/05/19 04:21:57;;;;;;;3.13;2.83;;;16.10;60.00;;;;;;5011567;28;20228;-52
2023/05/19 04:24:28;;;;;;;2.80;2.60;;;16.10;60.00;;;;;;5011674;28;20744;-51
2023/05/19 04:27:01;;;;;;;2.92;2.70;;;16.10;60.00;;;;;;5011727;28;20208;-48
2023/05/19 04:29:32;;;;;;;2.97;2.67;;;16.10;60.00;;;;;;5011739;28;20217;-50
2023/05/19 04:32:05;;;;;;;3.08;2.83;;;16.10;60.00;;;;;;5011634;28;20189;-49
2023/05/19 04:34:39;;;;;;;3.25;2.90;;;16.10;60.00;;;;;;5011999;28;20201;-49
2023/05/19 04:37:10;;;;;;;3.22;2.90;;;16.10;60.00;;;;;;5011767;28;20237;-49
2023/05/19 04:39:42;;;;;;;3.22;2.92;;;16.10;60.00;;;;;;5011985;28;20263;-50
2023/05/19 04:42:12;;;;;;;3.25;2.95;;;16.10;59.90;;;;;;5011922;28;20224;-49
2023/05/19 04:44:43;;;;;;;2.97;2.75;;;16.10;59.90;;;;;;5011739;28;20201;-50
2023/05/19 04:47:14;;;;;;;3.80;2.97;;;16.10;59.90;;;;;;5011782;28;20196;-49
2023/05/19 04:49:46;;;;;;;3.17;2.88;;;16.10;59.90;;;;;;5011459;28;20232;-51
2023/05/19 04:52:20;;;;;;;3.13;2.80;;;16.10;59.80;;;;;;5011457;28;20193;-52
2023/05/19 04:54:51;;;;;;;4.60;3.15;;;16.10;59.90;;;;;;5011897;28;20716;-53
2023/05/19 04:57:22;;;;;;;3.80;3.45;;;16.10;59.90;;;;;;5011816;28;20197;-49
2023/05/19 04:59:58;;;;;;;4.15;2.97;;;16.10;59.90;;;;;;5011806;28;20220;-49
2023/05/19 05:02:30;;;;;;;2.88;2.67;;;16.10;59.90;;;;;;5010855;28;20224;-48
2023/05/19 05:05:03;;;;;;;3.17;2.80;;;16.10;59.90;;;;;;5011389;28;20219;-49
2023/05/19 05:07:34;;;;;;;3.40;3.10;;;16.10;60.00;;;;;;5011590;28;20483;-53
2023/05/19 05:10:05;;;;;;;3.25;3.03;;;16.10;60.00;;;;;;5013109;28;20217;-50
2023/05/19 05:12:36;;;;;;;3.80;3.40;;;16.10;59.90;;;;;;5015243;28;20203;-48
2023/05/19 05:15:08;;;;;;;3.53;3.10;;;16.10;60.00;;;;;;5015773;28;20235;-50
2023/05/19 05:17:39;;;;;;;3.55;3.15;;;16.20;59.90;;;;;;5015176;28;20204;-50
2023/05/19 05:20:13;;;;;;;3.88;3.45;;;16.10;59.90;;;;;;5015622;28;20236;-49
2023/05/19 05:22:44;;;;;;;3.88;3.45;;;16.20;59.90;;;;;;5015455;28;20658;-49
2023/05/19 05:25:17;;;;;;;3.95;3.38;;;16.20;59.90;;;;;;5015520;28;20205;-51
2023/05/19 05:27:47;;;;;;;3.55;3.25;;;16.10;59.90;;;;;;5015313;28;20228;-49
2023/05/19 05:30:18;;;;;;;3.10;2.80;;;16.20;60.00;;;;;;5015253;28;20221;-49
2023/05/19 05:32:49;;;;;;;3.40;3.10;;;16.10;59.90;;;;;;5015262;28;20193;-49
2023/05/19 05:35:22;;;;;;;3.08;2.78;;;16.10;59.90;;;;;;5014734;28;20197;-52
2023/05/19 05:37:53;;;;;;;6.22;4.70;;;16.10;60.00;;;;;;5015341;28;20200;-51
2023/05/19 05:40:24;;;;;;;8.35;6.13;;;16.10;60.50;;;;;;5015092;28;20229;-53
2023/05/19 05:42:55;;;;;;;8.18;5.78;;;16.20;62.10;;;;;;5014778;28;20228;-50
2023/05/19 05:45:25;;;;;;;6.05;4.97;;;16.20;62.30;;;;;;5015231;28;20826;-49
2023/05/19 05:47:56;;;;;;;6.90;4.95;;;16.20;62.00;;;;;;5015380;28;20193;-49
2023/05/19 05:50:29;;;;;;;5.47;4.40;;;16.20;61.80;;;;;;5015089;28;20217;-48
2023/05/19 05:53:02;;;;;;;5.88;4.68;;;16.30;61.70;;;;;;5014988;28;20538;-50
2023/05/19 05:55:33;;;;;;;5.13;4.63;;;16.30;61.60;;;;;;5014935;28;20201;-51
2023/05/19 05:58:04;;;;;;;5.93;5.18;;;16.30;61.40;;;;;;5004477;28;20632;-49
2023/05/19 06:00:35;;;;;;;6.55;4.90;;;16.30;61.30;;;;;;4995379;28;20213;-49
2023/05/19 06:03:06;;;;;;;5.97;4.57;;;16.30;61.30;;;;;;4995216;28;20284;-50
2023/05/19 06:05:38;;;;;;;5.38;4.28;;;16.30;61.10;;;;;;4994955;28;20252;-49
2023/05/19 06:08:09;;;;;;;5.90;4.90;;;16.30;61.10;;;;;;4994960;28;20193;-50
2023/05/19 06:10:41;;;;;;;5.63;4.70;;;16.30;61.00;;;;;;5010623;28;20220;-49
2023/05/19 06:13:12;;;;;;;6.28;4.40;;;16.30;60.90;;;;;;5014490;28;20700;-50
2023/05/19 06:15:43;;;;;;;5.82;5.18;;;16.20;60.80;;;;;;5014405;28;20197;-49
2023/05/19 06:18:13;;;;;;;5.22;4.57;;;16.30;60.90;;;;;;5014517;28;20206;-54
2023/05/19 06:20:46;;;;;;;4.88;4.18;;;16.30;60.90;;;;;;5014591;28;20221;-49
2023/05/19 06:23:17;;;;;;;5.55;4.72;;;16.30;60.80;;;;;;5014011;28;20225;-50
2023/05/19 06:25:48;;;;;;;5.80;4.68;;;16.30;60.80;;;;;;5013209;28;20204;-54
2023/05/19 06:28:19;;;;;;;5.72;4.38;;;16.30;60.70;;;;;;5006852;28;20200;-50
2023/05/19 06:30:49;;;;;;;5.55;4.68;;;16.30;60.70;;;;;;5008165;28;20243;-50
2023/05/19 06:33:20;;;;;;;5.88;4.75;;;16.30;60.70;;;;;;4998508;28;20205;-53
2023/05/19 06:35:52;;;;;;;4.68;4.18;;;16.20;60.50;;;;;;4998809;28;20189;-51
2023/05/19 06:38:23;;;;;;;4.78;3.97;;;16.30;60.50;;;;;;4994184;28;20201;-54
2023/05/19 06:40:54;;;;;;;4.32;3.92;;;16.20;60.40;;;;;;5011882;28;20221;-52
2023/05/19 06:43:24;;;;;;;4.65;4.25;;;16.20;60.30;;;;;;5014127;28;20236;-51
2023/05/19 06:45:55;;;;;;;4.97;4.47;;;16.20;60.30;;;;;;5014087;28;20239;-49
2023/05/19 06:48:26;;;;;;;5.30;4.53;;;16.20;60.20;;;;;;5014487;28;20204;-50
2023/05/19 06:50:58;;;;;;;6.78;5.00;;;16.30;60.40;;;;;;5013398;28;20225;-52
2023/05/19 06:53:29;;;;;;;7.00;5.07;;;16.20;60.30;;;;;;5013418;28;20203;-55
2023/05/19 06:55:59;;;;;;;9.10;5.32;;;16.20;60.30;;;;;;5013367;28;20200;-50
2023/05/19 06:58:30;;;;;;;10.45;6.40;;;16.20;60.30;;;;;;5013644;28;20192;-54
2023/05/19 07:01:01;;;;;;;13.55;7.35;;;16.20;60.30;;;;;;5013349;28;20216;-48
2023/05/19 07:03:31;;;;;;;14.80;7.97;;;16.30;60.50;;;;;;5013268;28;20267;-55
2023/05/19 07:06:04;;;;;;;16.83;7.88;;;16.20;60.40;;;;;;5013521;28;20224;-56
2023/05/19 07:08:35;;;;;;;15.60;6.68;;;16.30;60.40;;;;;;5013826;28;20196;-56
2023/05/19 07:11:06;;;;;;;14.50;8.40;;;16.20;60.20;;;;;;5012886;28;20252;-55
2023/05/19 07:13:37;;;;;;;15.27;8.30;;;16.20;60.20;;;;;;5013441;28;20201;-52
2023/05/19 07:16:08;;;;;;;18.50;8.82;;;16.20;60.10;;;;;;5013083;28;20258;-50
2023/05/19 07:18:38;;;;;;;14.82;8.45;;;16.20;60.10;;;;;;5011262;28;20193;-53
2023/05/19 07:21:11;;;;;;;14.18;7.72;;;16.20;60.00;;;;;;5012830;28;20216;-55
2023/05/19 07:23:41;;;;;;;17.55;8.77;;;16.20;60.00;;;;;;5012348;28;20228;-52
2023/05/19 07:26:12;;;;;;;20.90;9.95;;;16.20;60.00;;;;;;5012710;28;20205;-50
2023/05/19 07:28:43;;;;;;;20.30;8.85;;;16.20;59.90;;;;;;5012448;28;20193;-50
2023/05/19 07:31:13;;;;;;;16.27;9.15;;;16.20;60.00;;;;;;5012378;28;20213;-54
2023/05/19 07:33:44;;;;;;;18.65;9.40;;;16.20;60.00;;;;;;5011780;28;20208;-52
2023/05/19 07:36:16;;;;;;;17.40;9.45;;;16.20;60.10;;;;;;5013062;28;20208;-51
2023/05/19 07:38:48;;;;;;;19.85;9.48;;;16.20;60.10;;;;;;5012778;28;20196;-54
2023/05/19 07:41:19;;;;;;;19.90;8.73;;;16.20;60.10;;;;;;5012274;28;20232;-52
2023/05/19 07:43:49;;;;;;;19.42;8.07;;;16.20;60.10;;;;;;5012587;28;20594;-53
2023/05/19 07:46:20;;;;;;;18.00;8.95;;;16.20;60.90;;;;;;5012612;28;20200;-56
2023/05/19 07:48:51;;;;;;;15.07;8.55;;;16.20;60.10;;;;;;5012758;28;20196;-49
2023/05/19 07:51:23;;;;;;;22.00;9.50;;;16.20;60.80;;;;;;5012624;28;20216;-53
2023/05/19 07:53:54;;;;;;;19.77;8.95;;;16.20;60.00;;;;;;5012654;28;20201;-52
2023/05/19 07:56:26;;;;;;;16.35;9.15;;;16.20;60.00;;;;;;5012301;28;20197;-50
2023/05/19 07:58:56;;;;;;;14.82;8.65;;;16.20;60.00;;;;;;5012562;28;20220;-49
2023/05/19 08:01:27;;;;;;;18.05;9.20;;;16.20;60.00;;;;;;5012517;28;20203;-51
2023/05/19 08:03:58;;;;;;;19.30;8.75;;;16.20;60.00;;;;;;5012353;28;20229;-49
2023/05/19 08:06:30;;;;;;;19.02;8.40;;;16.20;60.80;;;;;;5012680;28;20681;-53
2023/05/19 08:09:01;;;;;;;16.00;8.60;;;16.20;60.00;;;;;;5011838;28;20275;-53
2023/05/19 08:11:32;;;;;;;14.23;8.38;;;16.20;60.00;;;;;;5012165;28;20196;-56
2023/05/19 08:14:02;;;;;;;18.25;8.75;;;16.20;60.10;;;;;;5011460;28;20570;-52
2023/05/19 08:16:33;;;;;;;16.65;8.80;;;16.20;60.10;;;;;;4992862;28;20221;-49
2023/05/19 08:19:05;;;;;;;19.35;8.43;;;16.20;60.10;;;;;;4992287;28;20208;-55
2023/05/19 08:21:38;;;;;;;16.73;8.27;;;16.20;60.10;;;;;;4996766;28;20624;-52
2023/05/19 08:24:09;;;;;;;18.05;8.15;;;16.20;60.10;;;;;;5006732;28;20216;-50
2023/05/19 08:26:39;;;;;;;14.88;8.10;;;16.20;60.10;;;;;;5004214;28;20197;-51
2023/05/19 08:29:10;;;;;;;18.85;8.88;;;16.20;60.10;;;;;;4993176;28;20197;-52
2023/05/19 08:31:41;;;;;;;16.63;9.00;;;16.20;60.00;;;;;;4998310;28;20676;-52
2023/05/19 08:34:11;;;;;;;17.63;8.50;;;16.20;60.00;;;;;;5012285;28;20200;-52
2023/05/19 08:36:44;;;;;;;14.10;7.93;;;16.20;60.00;;;;;;5004701;28;20197;-52
2023/05/19 08:39:16;;;;;;;15.88;8.57;;;16.20;60.00;;;;;;5011291;28;20672;-53
2023/05/19 08:41:47;;;;;;;15.15;8.60;;;16.20;60.00;;;;;;5011770;28;20197;-53
2023/05/19 08:44:17;;;;;;;13.75;7.35;;;16.20;60.00;;;;;;5011546;28;20248;-54
2023/05/19 08:46:48;;;;;;;15.73;7.68;;;16.20;60.00;;;;;;5005409;28;20201;-53
2023/05/19 08:49:22;;;;;;;16.50;8.02;;;16.20;60.00;;;;;;4991853;28;20208;-57
2023/05/19 08:52:02;;;;;;;15.88;8.27;;;16.20;60.00;;;;;;5001838;28;20203;-50
2023/05/19 08:54:39;;;;;;;15.65;8.02;;;16.20;60.00;;;;;;5011653;28;20296;-54
2023/05/19 08:57:10;;;;;;;15.07;7.55;;;16.20;60.10;;;;;;5011425;28;20227;-52
2023/05/19 08:59:42;;;;;;;11.82;7.70;;;16.20;60.10;;;;;;5011247;28;20216;-58
2023/05/19 09:02:15;;;;;;;15.52;7.90;;;16.20;60.10;;;;;;5010891;28;20197;-55
2023/05/19 09:04:46;;;;;;;14.93;7.65;;;16.20;60.90;;;;;;5010943;28;20328;-52
2023/05/19 09:07:20;;;;;;;13.98;8.32;;;16.20;60.10;;;;;;5011730;28;20201;-50
2023/05/19 09:09:50;;;;;;;12.23;8.10;;;16.20;60.00;;;;;;5003895;28;20682;-55
2023/05/19 09:12:21;;;;;;;14.63;8.23;;;16.20;60.00;;;;;;4991532;28;20197;-52
2023/05/19 09:14:52;;;;;;;14.23;7.65;;;16.20;60.00;;;;;;4992142;28;20221;-53
2023/05/19 09:17:23;;;;;;;16.33;7.65;;;16.20;60.00;;;;;;5008837;28;20193;-51
2023/05/19 09:19:54;;;;;;;14.70;7.72;;;16.20;60.00;;;;;;5011260;28;20217;-53
2023/05/19 09:22:27;;;;;;;14.57;7.18;;;16.20;60.00;;;;;;5011367;28;20232;-50
2023/05/19 09:24:58;;;;;;;14.85;7.82;;;16.20;60.00;;;;;;5010419;28;20224;-53
2023/05/19 09:27:29;;;;;;;12.73;7.32;;;16.20;60.00;;;;;;5009588;28;20615;-52
2023/05/19 09:30:09;;;;;;;14.43;7.78;;;16.20;60.00;;;;;;5010541;28;20221;-53
2023/05/19 09:32:40;;;;;;;14.25;7.72;;;16.20;60.00;;;;;;5010886;28;20232;-51
2023/05/19 09:35:12;;;;;;;11.25;7.55;;;16.20;60.10;;;;;;5010946;28;20288;-51
2023/05/19 09:37:47;;;;;;;12.30;7.28;;;16.20;60.10;;;;;;5010295;28;20201;-49
2023/05/19 09:40:18;;;;;;;15.80;7.85;;;16.20;60.10;;;;;;5011094;28;20220;-52
2023/05/19 09:42:49;;;;;;;12.75;7.75;;;16.20;60.10;;;;;;5010210;28;20205;-51
2023/05/19 09:45:21;;;;;;;13.32;7.22;;;16.20;60.10;;;;;;5009774;28;20692;-53
2023/05/19 09:47:52;;;;;;;14.63;7.90;;;16.20;60.10;;;;;;5011597;28;20231;-51
2023/05/19 09:50:23;;;;;;;12.73;7.45;;;16.20;60.00;;;;;;5011096;28;20320;-51
2023/05/19 09:52:56;;;;;;;12.10;7.47;;;16.20;60.00;;;;;;5011558;28;20204;-52
2023/05/19 09:55:31;;;;;;;13.80;7.22;;;16.20;60.00;;;;;;5011329;28;20224;-53
2023/05/19 09:58:03;;;;;;;12.88;7.40;;;16.20;60.00;;;;;;5013618;28;20196;-53
2023/05/19 10:00:34;;;;;;;12.00;7.32;;;16.20;60.00;;;;;;5014549;28;20221;-52
2023/05/19 10:03:07;;;;;;;13.85;7.80;;;16.20;60.00;;;;;;5014716;28;20200;-52
2023/05/19 10:05:39;;;;;;;11.35;6.80;;;16.20;60.00;;;;;;5014877;28;20200;-51
2023/05/19 10:08:13;;;;;;;10.40;6.80;;;16.20;60.80;;;;;;5014610;28;20263;-52
2023/05/19 10:10:44;;;;;;;13.15;7.25;;;16.20;60.10;;;;;;5014514;28;20227;-50
2023/05/19 10:13:15;;;;;;;10.10;6.97;;;16.20;60.10;;;;;;5014325;28;20211;-53
2023/05/19 10:15:48;;;;;;;12.35;7.55;;;16.20;60.10;;;;;;5014924;28;20204;-49
2023/05/19 10:18:20;;;;;;;12.98;7.00;;;16.20;60.10;;;;;;5014745;28;20204;-51
2023/05/19 10:20:53;;;;;;;12.77;7.38;;;16.20;60.20;;;;;;5013948;28;20583;-53
2023/05/19 10:23:26;;;;;;;11.77;7.32;;;16.20;60.10;;;;;;5014401;28;20200;-51
2023/05/19 10:26:00;;;;;;;11.52;7.50;;;16.20;60.10;;;;;;5014604;28;20201;-55
2023/05/19 10:28:37;;;;;;;10.82;6.88;;;16.20;60.10;;;;;;5014427;28;20262;-50
2023/05/19 10:31:11;;;;;;;13.10;7.50;;;16.20;60.00;;;;;;5014290;28;20722;-51
2023/05/19 10:33:54;;;;;;;11.70;6.93;;;16.20;60.10;;;;;;5013959;28;20193;-52
2023/05/19 10:36:46;;;;;;;10.13;6.50;;;16.20;60.00;;;;;;5014007;28;20204;-51
2023/05/19 10:39:27;;;;;;;11.27;6.30;;;16.20;60.00;;;;;;5013489;28;20228;-50
2023/05/19 10:42:05;;;;;;;11.60;6.97;;;16.20;60.00;;;;;;5014210;28;20201;-49
2023/05/19 10:44:48;;;;;;;8.70;6.47;;;16.20;60.00;;;;;;5013793;28;20773;-49
2023/05/19 10:47:25;;;;;;;12.88;6.63;;;16.20;60.10;;;;;;5014169;28;20197;-50
2023/05/19 10:49:56;;;;;;;11.35;6.53;;;16.20;60.10;;;;;;5013758;28;20239;-52
2023/05/19 10:52:28;;;;;;;11.43;6.75;;;16.20;60.10;;;;;;5013916;28;20204;-54
2023/05/19 10:55:03;;;;;;;11.27;6.55;;;16.20;60.20;;;;;;5013412;28;20213;-51
2023/05/19 10:57:34;;;;;;;11.45;6.90;;;16.20;60.20;;;;;;5013420;28;20598;-52
2023/05/19 11:00:27;;;;;;;11.02;6.93;;;16.20;60.20;;;;;;5013639;28;20221;-49
2023/05/19 11:03:13;;;;;;;11.32;7.05;;;16.20;60.20;;;;;;5014083;28;20616;-50
2023/05/19 11:05:45;;;;;;;10.93;6.95;;;16.20;60.10;;;;;;5013718;28;20229;-49
2023/05/19 11:08:16;;;;;;;10.80;6.80;;;16.20;60.10;;;;;;5013641;28;20715;-50
2023/05/19 11:10:53;;;;;;;12.07;7.03;;;16.20;60.10;;;;;;5013622;28;20221;-54
2023/05/19 11:13:30;;;;;;;12.63;6.93;;;16.20;60.10;;;;;;5013672;28;20251;-49
2023/05/19 11:16:02;;;;;;;9.13;6.30;;;16.20;60.00;;;;;;5013409;28;20208;-53
2023/05/19 11:18:34;;;;;;;12.70;6.85;;;16.20;60.10;;;;;;5013245;28;20189;-50
2023/05/19 11:21:05;;;;;;;11.95;6.55;;;16.20;60.00;;;;;;5013334;28;20218;-49
2023/05/19 11:23:39;;;;;;;10.88;6.30;;;16.20;60.00;;;;;;5013016;28;20204;-56
2023/05/19 11:26:12;;;;;;;11.38;6.32;;;16.20;60.10;;;;;;5013292;28;20201;-52
2023/05/19 11:28:42;;;;;;;10.80;6.47;;;16.20;60.10;;;;;;5013380;28;20256;-50
2023/05/19 11:31:14;;;;;;;12.35;7.10;;;16.20;60.10;;;;;;5013521;28;20612;-49
2023/05/19 11:33:44;;;;;;;9.90;6.47;;;16.20;60.10;;;;;;5013209;28;21010;-51
2023/05/19 11:36:16;;;;;;;9.77;6.45;;;16.20;60.20;;;;;;5013159;28;20205;-49
2023/05/19 11:38:48;;;;;;;13.68;6.80;;;16.20;60.20;;;;;;5012906;28;20562;-51
2023/05/19 11:41:21;;;;;;;9.80;6.20;;;16.20;60.10;;;;;;5012894;28;20224;-51
2023/05/19 11:43:51;;;;;;;12.63;6.50;;;16.20;60.20;;;;;;5012480;28;20204;-49
2023/05/19 11:46:22;;;;;;;9.90;6.65;;;16.20;60.90;;;;;;5012580;28;20201;-49
2023/05/19 11:48:52;;;;;;;10.63;7.03;;;16.20;60.10;;;;;;5013014;28;20212;-49
2023/05/19 11:51:24;;;;;;;11.32;6.63;;;16.20;60.10;;;;;;5012803;28;20220;-50
2023/05/19 11:53:55;;;;;;;8.85;6.20;;;16.20;60.00;;;;;;5012554;28;20197;-53
2023/05/19 11:56:27;;;;;;;9.82;5.85;;;16.20;60.00;;;;;;5012656;28;20196;-51
2023/05/19 11:58:58;;;;;;;11.13;6.45;;;16.20;60.00;;;;;;5012711;28;20201;-50
2023/05/19 12:01:30;;;;;;;10.38;6.15;;;16.20;60.00;;;;;;5012937;28;20200;-54
2023/05/19 12:04:01;;;;;;;10.30;6.10;;;16.20;60.00;;;;;;5012570;28;20201;-51
2023/05/19 12:06:32;;;;;;;10.07;5.70;;;16.20;60.00;;;;;;5012545;28;20208;-52
2023/05/19 12:09:03;;;;;;;8.95;5.88;;;16.20;60.00;;;;;;5012250;28;20704;-56
2023/05/19 12:11:35;;;;;;;9.43;5.90;;;16.20;60.00;;;;;;5012827;28;20204;-53
2023/05/19 12:14:07;;;;;;;8.52;5.75;;;16.20;60.10;;;;;;5012490;28;20645;-52
2023/05/19 12:16:38;;;;;;;8.80;5.40;;;16.20;60.10;;;;;;5012984;28;20201;-55
2023/05/19 12:19:10;;;;;;;9.65;6.00;;;16.20;60.10;;;;;;5012031;28;20197;-49
2023/05/19 12:21:41;;;;;;;8.98;5.70;;;16.20;60.10;;;;;;5012357;28;20626;-51
2023/05/19 12:24:12;;;;;;;9.45;6.15;;;16.20;60.10;;;;;;5012527;28;20221;-55
2023/05/19 12:26:44;;;;;;;8.85;5.38;;;16.20;60.10;;;;;;5012030;28;20197;-53
2023/05/19 12:29:16;;;;;;;8.68;5.60;;;16.20;60.90;;;;;;5011892;28;20286;-51
2023/05/19 12:31:49;;;;;;;7.93;5.28;;;16.20;60.10;;;;;;5012006;28;20193;-52
2023/05/19 12:34:20;;;;;;;7.43;5.25;;;16.20;60.00;;;;;;5012054;28;20211;-53
2023/05/19 12:36:51;;;;;;;7.22;5.38;;;16.20;60.10;;;;;;5011605;28;20193;-55
2023/05/19 12:39:22;;;;;;;6.80;5.13;;;16.20;60.00;;;;;;5011893;28;20601;-56
2023/05/19 12:41:54;;;;;;;8.20;5.45;;;16.20;60.00;;;;;;5012154;28;20649;-51
2023/05/19 12:44:25;;;;;;;8.15;5.80;;;16.20;60.00;;;;;;5011647;28;20711;-52
2023/05/19 12:46:58;;;;;;;8.18;5.97;;;16.20;60.00;;;;;;5011862;28;20200;-54
2023/05/19 12:49:28;;;;;;;8.75;5.57;;;16.20;60.00;;;;;;5011958;28;20347;-55
2023/05/19 12:52:02;;;;;;;8.82;6.00;;;16.20;60.00;;;;;;5011804;28;20197;-49
2023/05/19 12:54:36;;;;;;;7.55;5.20;;;16.20;60.10;;;;;;5011634;28;20598;-49
2023/05/19 12:57:12;;;;;;;7.95;5.22;;;16.20;60.10;;;;;;5011622;28;20201;-53
2023/05/19 12:59:45;;;;;;;7.50;5.28;;;16.20;60.20;;;;;;5011263;28;20557;-52
2023/05/19 13:02:16;;;;;;;7.75;5.38;;;16.20;60.10;;;;;;5011546;28;20193;-52
2023/05/19 13:04:47;;;;;;;8.93;5.15;;;16.20;60.10;;;;;;5011610;28;20260;-51
2023/05/19 13:07:18;;;;;;;8.30;5.43;;;16.20;60.10;;;;;;5011459;28;20279;-53
2023/05/19 13:09:48;;;;;;;9.85;5.80;;;16.20;60.10;;;;;;5011400;28;20308;-50